sensor_id;sensor_type;location;lat;lon;timestamp;pressure;altitude;pressure_sealevel;temperature;humidity
69035;BME280;56091;55.756;37.412;2023-04-05T00:04:37;99217.19;;;7.27;80.75
69035;BME280;56091;55.756;37.412;2023-04-05T00:09:50;99221.97;;;7.25;80.72
69035;BME280;56091;55.756;37.412;2023-04-05T00:14:51;99215.09;;;7.17;81.20
69035;BME280;56091;55.756;37.412;2023-04-05T00:19:52;99215.34;;;7.16;81.29
69035;BME280;56091;55.756;37.412;2023-04-05T00:24:56;99213.22;;;7.06;81.52
69035;BME280;56091;55.756;37.412;2023-04-05T00:29:57;99217.88;;;6.99;81.68
69035;BME280;56091;55.756;37.412;2023-04-05T00:34:58;99204.84;;;6.91;81.91
69035;BME280;56091;55.756;37.412;2023-04-05T00:39:58;99210.06;;;6.86;82.11
69035;BME280;56091;55.756;37.412;2023-04-05T00:45:02;99217.06;;;6.87;82.22
69035;BME280;56091;55.756;37.412;2023-04-05T00:50:04;99206.53;;;6.73;82.13
69035;BME280;56091;55.756;37.412;2023-04-05T00:55:06;99203.19;;;6.66;82.41
69035;BME280;56091;55.756;37.412;2023-04-05T01:00:07;99227.78;;;6.75;82.44
69035;BME280;56091;55.756;37.412;2023-04-05T01:05:36;99228.13;;;6.67;82.61
69035;BME280;56091;55.756;37.412;2023-04-05T01:10:43;99221.22;;;6.59;82.77
69035;BME280;56091;55.756;37.412;2023-04-05T01:15:44;99223.53;;;6.55;82.98
69035;BME280;56091;55.756;37.412;2023-04-05T01:20:48;99229.72;;;6.56;82.87
69035;BME280;56091;55.756;37.412;2023-04-05T01:36:56;99221.88;;;6.42;82.82
69035;BME280;56091;55.756;37.412;2023-04-05T01:42:01;99228.03;;;6.43;82.78
69035;BME280;56091;55.756;37.412;2023-04-05T01:47:02;99231.19;;;6.40;82.83
69035;BME280;56091;55.756;37.412;2023-04-05T01:52:03;99212.16;;;6.30;82.66
69035;BME280;56091;55.756;37.412;2023-04-05T01:57:04;99225.34;;;6.31;82.52
69035;BME280;56091;55.756;37.412;2023-04-05T02:02:05;99226.25;;;6.25;82.59
69035;BME280;56091;55.756;37.412;2023-04-05T02:07:07;99235.78;;;6.21;82.36
69035;BME280;56091;55.756;37.412;2023-04-05T02:12:08;99236.78;;;6.08;82.67
69035;BME280;56091;55.756;37.412;2023-04-05T02:17:08;99250.75;;;6.10;82.67
69035;BME280;56091;55.756;37.412;2023-04-05T02:22:10;99255.16;;;6.04;82.79
69035;BME280;56091;55.756;37.412;2023-04-05T02:27:11;99259.56;;;5.99;82.85
69035;BME280;56091;55.756;37.412;2023-04-05T02:32:12;99259.03;;;5.90;82.77
69035;BME280;56091;55.756;37.412;2023-04-05T02:37:13;99256.41;;;5.83;82.68
69035;BME280;56091;55.756;37.412;2023-04-05T02:42:14;99268.84;;;5.78;82.69
69035;BME280;56091;55.756;37.412;2023-04-05T02:47:15;99265.72;;;5.62;82.82
69035;BME280;56091;55.756;37.412;2023-04-05T02:52:24;99264.53;;;5.58;82.65
69035;BME280;56091;55.756;37.412;2023-04-05T02:57:28;99279.25;;;5.49;82.58
69035;BME280;56091;55.756;37.412;2023-04-05T03:02:37;99284.34;;;5.32;82.76
69035;BME280;56091;55.756;37.412;2023-04-05T03:07:39;99262.09;;;5.13;82.70
69035;BME280;56091;55.756;37.412;2023-04-05T03:12:45;99283.66;;;5.18;82.76
69035;BME280;56091;55.756;37.412;2023-04-05T03:17:46;99280.00;;;5.13;82.49
69035;BME280;56091;55.756;37.412;2023-04-05T03:22:49;99291.41;;;5.01;82.45
69035;BME280;56091;55.756;37.412;2023-04-05T03:27:50;99279.50;;;4.97;82.00
69035;BME280;56091;55.756;37.412;2023-04-05T03:32:52;99295.19;;;5.12;81.62
69035;BME280;56091;55.756;37.412;2023-04-05T03:38:13;99295.97;;;5.19;80.72
69035;BME280;56091;55.756;37.412;2023-04-05T03:43:22;99308.84;;;5.29;80.28
69035;BME280;56091;55.756;37.412;2023-04-05T03:48:24;99314.56;;;5.33;79.67
69035;BME280;56091;55.756;37.412;2023-04-05T03:53:26;99309.09;;;5.27;79.60
69035;BME280;56091;55.756;37.412;2023-04-05T03:58:30;99320.53;;;5.35;79.34
69035;BME280;56091;55.756;37.412;2023-04-05T04:03:32;99316.44;;;5.32;79.27
69035;BME280;56091;55.756;37.412;2023-04-05T04:08:33;99325.66;;;5.36;79.24
69035;BME280;56091;55.756;37.412;2023-04-05T04:13:34;99326.72;;;5.35;79.56
69035;BME280;56091;55.756;37.412;2023-04-05T04:18:45;99335.13;;;5.39;79.61
69035;BME280;56091;55.756;37.412;2023-04-05T04:24:05;99340.19;;;5.47;78.93
69035;BME280;56091;55.756;37.412;2023-04-05T04:29:42;99331.59;;;5.63;78.13
69035;BME280;56091;55.756;37.412;2023-04-05T04:35:04;99351.91;;;5.90;77.44
69035;BME280;56091;55.756;37.412;2023-04-05T04:40:33;99348.56;;;6.31;76.31
69035;BME280;56091;55.756;37.412;2023-04-05T04:46:06;99352.59;;;6.40;74.36
69035;BME280;56091;55.756;37.412;2023-04-05T04:51:16;99355.44;;;6.27;74.97
69035;BME280;56091;55.756;37.412;2023-04-05T04:56:17;99345.63;;;5.59;77.12
69035;BME280;56091;55.756;37.412;2023-04-05T05:01:18;99361.25;;;5.80;77.60
69035;BME280;56091;55.756;37.412;2023-04-05T05:06:19;99374.50;;;6.19;76.20
69035;BME280;56091;55.756;37.412;2023-04-05T05:11:21;99378.56;;;6.40;74.86
69035;BME280;56091;55.756;37.412;2023-04-05T05:16:22;99353.94;;;6.13;74.52
69035;BME280;56091;55.756;37.412;2023-04-05T05:21:23;99385.84;;;6.51;74.16
69035;BME280;56091;55.756;37.412;2023-04-05T05:26:28;99383.66;;;6.60;73.62
69035;BME280;56091;55.756;37.412;2023-04-05T05:31:29;99377.34;;;6.54;73.20
69035;BME280;56091;55.756;37.412;2023-04-05T05:36:33;99392.81;;;6.52;73.43
69035;BME280;56091;55.756;37.412;2023-04-05T05:41:34;99392.94;;;6.45;73.93
69035;BME280;56091;55.756;37.412;2023-04-05T05:46:35;99398.13;;;6.40;73.85
69035;BME280;56091;55.756;37.412;2023-04-05T05:51:36;99392.44;;;6.67;73.36
69035;BME280;56091;55.756;37.412;2023-04-05T05:56:37;99393.72;;;6.95;71.86
69035;BME280;56091;55.756;37.412;2023-04-05T06:01:38;99394.94;;;7.11;71.27
69035;BME280;56091;55.756;37.412;2023-04-05T06:06:42;99397.91;;;6.91;71.47
69035;BME280;56091;55.756;37.412;2023-04-05T06:11:43;99390.16;;;7.24;70.50
69035;BME280;56091;55.756;37.412;2023-04-05T06:16:44;99385.50;;;7.20;70.33
69035;BME280;56091;55.756;37.412;2023-04-05T06:21:45;99399.72;;;7.20;70.33
69035;BME280;56091;55.756;37.412;2023-04-05T06:26:46;99396.25;;;7.20;70.03
69035;BME280;56091;55.756;37.412;2023-04-05T06:31:46;99416.94;;;7.55;69.13
69035;BME280;56091;55.756;37.412;2023-04-05T06:36:47;99417.06;;;7.48;69.10
69035;BME280;56091;55.756;37.412;2023-04-05T06:41:48;99416.34;;;7.41;69.85
69035;BME280;56091;55.756;37.412;2023-04-05T06:46:49;99417.75;;;7.43;69.51
69035;BME280;56091;55.756;37.412;2023-04-05T06:51:50;99415.69;;;7.57;69.01
69035;BME280;56091;55.756;37.412;2023-04-05T06:56:51;99408.69;;;7.80;68.31
69035;BME280;56091;55.756;37.412;2023-04-05T07:01:52;99424.56;;;7.93;68.22
69035;BME280;56091;55.756;37.412;2023-04-05T07:06:52;99423.28;;;7.96;67.42
69035;BME280;56091;55.756;37.412;2023-04-05T07:11:56;99428.31;;;8.16;67.30
69035;BME280;56091;55.756;37.412;2023-04-05T07:16:57;99421.38;;;8.44;65.98
69035;BME280;56091;55.756;37.412;2023-04-05T07:21:59;99427.63;;;8.73;65.12
69035;BME280;56091;55.756;37.412;2023-04-05T07:26:59;99426.38;;;8.92;64.71
69035;BME280;56091;55.756;37.412;2023-04-05T07:32:02;99426.44;;;9.09;63.89
69035;BME280;56091;55.756;37.412;2023-04-05T07:37:04;99428.59;;;9.24;63.46
69035;BME280;56091;55.756;37.412;2023-04-05T07:42:06;99437.75;;;9.57;62.56
69035;BME280;56091;55.756;37.412;2023-04-05T07:47:06;99434.63;;;9.82;61.51
69035;BME280;56091;55.756;37.412;2023-04-05T07:52:07;99428.59;;;9.75;61.18
69035;BME280;56091;55.756;37.412;2023-04-05T07:57:08;99437.31;;;9.99;61.04
69035;BME280;56091;55.756;37.412;2023-04-05T08:02:09;99443.25;;;10.18;60.31
69035;BME280;56091;55.756;37.412;2023-04-05T08:07:11;99391.22;;;9.62;61.02
69035;BME280;56091;55.756;37.412;2023-04-05T08:12:12;99437.22;;;10.11;60.59
69035;BME280;56091;55.756;37.412;2023-04-05T08:17:12;99442.44;;;10.34;59.99
69035;BME280;56091;55.756;37.412;2023-04-05T08:22:14;99435.41;;;10.55;59.13
69035;BME280;56091;55.756;37.412;2023-04-05T08:27:17;99446.50;;;10.20;59.96
69035;BME280;56091;55.756;37.412;2023-04-05T08:32:18;99454.59;;;10.20;59.56
69035;BME280;56091;55.756;37.412;2023-04-05T08:37:19;99446.13;;;10.50;59.13
69035;BME280;56091;55.756;37.412;2023-04-05T08:42:27;99451.81;;;10.98;58.24
69035;BME280;56091;55.756;37.412;2023-04-05T08:47:29;99440.59;;;11.06;57.55
69035;BME280;56091;55.756;37.412;2023-04-05T08:52:31;99446.34;;;11.42;56.86
69035;BME280;56091;55.756;37.412;2023-04-05T08:57:36;99446.22;;;11.59;56.60
69035;BME280;56091;55.756;37.412;2023-04-05T09:02:39;99441.69;;;11.97;55.29
69035;BME280;56091;55.756;37.412;2023-04-05T09:07:43;99439.88;;;12.13;54.57
69035;BME280;56091;55.756;37.412;2023-04-05T09:12:47;99435.56;;;12.17;54.42
69035;BME280;56091;55.756;37.412;2023-04-05T09:17:49;99440.47;;;12.25;54.36
69035;BME280;56091;55.756;37.412;2023-04-05T09:22:51;99429.56;;;12.05;54.51
69035;BME280;56091;55.756;37.412;2023-04-05T09:27:53;99451.38;;;12.36;54.62
69035;BME280;56091;55.756;37.412;2023-04-05T09:32:57;99444.13;;;12.52;53.75
69035;BME280;56091;55.756;37.412;2023-04-05T09:38:03;99431.28;;;12.79;52.77
69035;BME280;56091;55.756;37.412;2023-04-05T09:43:06;99433.16;;;12.84;52.64
69035;BME280;56091;55.756;37.412;2023-04-05T09:48:08;99446.22;;;12.97;52.76
69035;BME280;56091;55.756;37.412;2023-04-05T09:53:12;99441.47;;;13.56;51.08
69035;BME280;56091;55.756;37.412;2023-04-05T09:58:21;99440.41;;;13.57;50.95
69035;BME280;56091;55.756;37.412;2023-04-05T10:03:24;99423.03;;;13.47;51.14
69035;BME280;56091;55.756;37.412;2023-04-05T10:08:25;99450.94;;;13.63;51.44
69035;BME280;56091;55.756;37.412;2023-04-05T10:13:26;99438.13;;;13.18;51.76
69035;BME280;56091;55.756;37.412;2023-04-05T10:18:33;99437.13;;;13.44;51.13
69035;BME280;56091;55.756;37.412;2023-04-05T10:23:43;99443.91;;;13.73;50.52
69035;BME280;56091;55.756;37.412;2023-04-05T10:28:51;99437.91;;;14.06;50.12
69035;BME280;56091;55.756;37.412;2023-04-05T10:34:06;99441.19;;;13.73;50.62
69035;BME280;56091;55.756;37.412;2023-04-05T10:39:23;99419.75;;;13.97;49.34
69035;BME280;56091;55.756;37.412;2023-04-05T10:44:27;99441.38;;;13.20;51.47
69035;BME280;56091;55.756;37.412;2023-04-05T10:49:38;99451.72;;;13.28;51.94
69035;BME280;56091;55.756;37.412;2023-04-05T10:54:39;99441.97;;;13.37;51.15
69035;BME280;56091;55.756;37.412;2023-04-05T10:59:43;99446.03;;;13.24;51.48
69035;BME280;56091;55.756;37.412;2023-04-05T11:04:44;99448.50;;;13.36;51.18
69035;BME280;56091;55.756;37.412;2023-04-05T11:10:05;99435.69;;;13.16;51.50
69035;BME280;56091;55.756;37.412;2023-04-05T11:20:45;99442.47;;;13.24;52.00
69035;BME280;56091;55.756;37.412;2023-04-05T11:25:56;99440.63;;;13.35;51.63
69035;BME280;56091;55.756;37.412;2023-04-05T11:31:16;99432.81;;;13.43;51.25
69035;BME280;56091;55.756;37.412;2023-04-05T11:36:46;99425.69;;;13.17;51.70
69035;BME280;56091;55.756;37.412;2023-04-05T11:42:02;99424.38;;;13.35;51.41
69035;BME280;56091;55.756;37.412;2023-04-05T11:47:03;99404.00;;;14.09;49.56
69035;BME280;56091;55.756;37.412;2023-04-05T11:52:15;99421.34;;;14.23;48.74
69035;BME280;56091;55.756;37.412;2023-04-05T11:57:22;99420.00;;;14.11;49.20
69035;BME280;56091;55.756;37.412;2023-04-05T12:02:23;99418.16;;;13.60;50.04
69035;BME280;56091;55.756;37.412;2023-04-05T12:07:27;99405.72;;;13.43;50.81
69035;BME280;56091;55.756;37.412;2023-04-05T12:12:36;99409.44;;;13.17;51.27
69035;BME280;56091;55.756;37.412;2023-04-05T12:17:45;99403.75;;;13.23;50.96
69035;BME280;56091;55.756;37.412;2023-04-05T12:22:51;99413.00;;;13.43;50.62
69035;BME280;56091;55.756;37.412;2023-04-05T12:27:52;99404.03;;;13.17;50.77
69035;BME280;56091;55.756;37.412;2023-04-05T12:32:54;99400.97;;;12.77;51.73
69035;BME280;56091;55.756;37.412;2023-04-05T12:37:57;99377.22;;;13.20;51.03
69035;BME280;56091;55.756;37.412;2023-04-05T12:43:06;99402.34;;;12.90;51.32
69035;BME280;56091;55.756;37.412;2023-04-05T12:48:19;99404.56;;;13.29;50.81
69035;BME280;56091;55.756;37.412;2023-04-05T12:53:23;99403.28;;;13.47;49.55
69035;BME280;56091;55.756;37.412;2023-04-05T12:58:35;99390.00;;;13.66;49.19
69035;BME280;56091;55.756;37.412;2023-04-05T13:03:46;99403.69;;;14.31;47.86
69035;BME280;56091;55.756;37.412;2023-04-05T13:08:46;99398.63;;;13.78;48.48
69035;BME280;56091;55.756;37.412;2023-04-05T13:13:47;99399.16;;;13.75;48.50
69035;BME280;56091;55.756;37.412;2023-04-05T13:18:48;99394.78;;;14.10;48.00
69035;BME280;56091;55.756;37.412;2023-04-05T13:23:49;99402.25;;;14.59;47.17
69035;BME280;56091;55.756;37.412;2023-04-05T13:28:50;99405.22;;;14.63;46.15
69035;BME280;56091;55.756;37.412;2023-04-05T13:33:51;99400.16;;;14.20;47.21
69035;BME280;56091;55.756;37.412;2023-04-05T13:38:51;99404.53;;;14.16;46.99
69035;BME280;56091;55.756;37.412;2023-04-05T13:43:52;99388.72;;;14.34;46.57
69035;BME280;56091;55.756;37.412;2023-04-05T13:48:53;99398.69;;;14.64;46.23
69035;BME280;56091;55.756;37.412;2023-04-05T13:53:54;99392.47;;;14.58;46.10
69035;BME280;56091;55.756;37.412;2023-04-05T13:58:55;99365.88;;;14.55;46.26
69035;BME280;56091;55.756;37.412;2023-04-05T14:03:55;99401.44;;;14.43;46.61
69035;BME280;56091;55.756;37.412;2023-04-05T14:08:56;99415.84;;;14.44;46.64
69035;BME280;56091;55.756;37.412;2023-04-05T14:13:57;99407.22;;;14.21;47.12
69035;BME280;56091;55.756;37.412;2023-04-05T14:18:58;99416.13;;;16.35;42.66
69035;BME280;56091;55.756;37.412;2023-04-05T14:23:58;99425.13;;;18.76;36.95
69035;BME280;56091;55.756;37.412;2023-04-05T14:28:59;99424.91;;;20.93;33.42
69035;BME280;56091;55.756;37.412;2023-04-05T14:34:00;99422.53;;;21.61;31.20
69035;BME280;56091;55.756;37.412;2023-04-05T14:39:02;99435.00;;;22.14;30.51
69035;BME280;56091;55.756;37.412;2023-04-05T14:44:03;99431.00;;;21.94;30.63
69035;BME280;56091;55.756;37.412;2023-04-05T14:49:04;99431.59;;;22.26;30.64
69035;BME280;56091;55.756;37.412;2023-04-05T14:54:05;99432.16;;;21.76;31.21
69035;BME280;56091;55.756;37.412;2023-04-05T14:59:06;99429.06;;;20.90;31.77
69035;BME280;56091;55.756;37.412;2023-04-05T15:04:12;99443.75;;;19.38;34.66
69035;BME280;56091;55.756;37.412;2023-04-05T15:09:13;99443.59;;;17.95;37.54
69035;BME280;56091;55.756;37.412;2023-04-05T15:14:14;99456.25;;;16.96;40.26
69035;BME280;56091;55.756;37.412;2023-04-05T15:19:15;99456.31;;;16.19;41.81
69035;BME280;56091;55.756;37.412;2023-04-05T15:24:16;99462.81;;;15.94;42.45
69035;BME280;56091;55.756;37.412;2023-04-05T15:29:19;99479.25;;;14.79;45.01
69035;BME280;56091;55.756;37.412;2023-04-05T15:34:20;99481.31;;;13.65;47.89
69035;BME280;56091;55.756;37.412;2023-04-05T15:39:24;99480.84;;;12.85;50.43
69035;BME280;56091;55.756;37.412;2023-04-05T15:44:25;99478.38;;;12.30;51.88
69035;BME280;56091;55.756;37.412;2023-04-05T15:49:26;99473.69;;;11.83;53.35
69035;BME280;56091;55.756;37.412;2023-04-05T15:54:27;99500.22;;;11.54;54.40
69035;BME280;56091;55.756;37.412;2023-04-05T15:59:28;99509.75;;;11.12;55.52
69035;BME280;56091;55.756;37.412;2023-04-05T16:04:30;99486.94;;;10.76;56.19
69035;BME280;56091;55.756;37.412;2023-04-05T16:09:34;99513.66;;;10.78;57.03
69035;BME280;56091;55.756;37.412;2023-04-05T16:14:35;99513.88;;;10.54;57.67
69035;BME280;56091;55.756;37.412;2023-04-05T16:19:36;99512.09;;;10.43;58.18
69035;BME280;56091;55.756;37.412;2023-04-05T16:24:37;99521.50;;;10.23;58.86
69035;BME280;56091;55.756;37.412;2023-04-05T16:29:38;99521.03;;;10.09;59.36
69035;BME280;56091;55.756;37.412;2023-04-05T16:34:39;99537.03;;;9.99;59.80
69035;BME280;56091;55.756;37.412;2023-04-05T16:39:40;99540.59;;;9.88;60.08
69035;BME280;56091;55.756;37.412;2023-04-05T16:44:41;99539.38;;;9.78;60.54
69035;BME280;56091;55.756;37.412;2023-04-05T16:49:42;99544.59;;;9.68;60.79
69035;BME280;56091;55.756;37.412;2023-04-05T16:54:48;99546.94;;;9.65;61.08
69035;BME280;56091;55.756;37.412;2023-04-05T16:59:49;99548.41;;;9.55;61.55
69035;BME280;56091;55.756;37.412;2023-04-05T17:04:50;99558.59;;;9.53;62.06
69035;BME280;56091;55.756;37.412;2023-04-05T17:09:52;99553.94;;;9.49;62.63
69035;BME280;56091;55.756;37.412;2023-04-05T17:14:54;99562.03;;;9.49;62.87
69035;BME280;56091;55.756;37.412;2023-04-05T17:19:57;99570.00;;;9.44;63.27
69035;BME280;56091;55.756;37.412;2023-04-05T17:24:58;99567.44;;;9.37;62.99
69035;BME280;56091;55.756;37.412;2023-04-05T17:30:00;99567.94;;;9.34;63.19
69035;BME280;56091;55.756;37.412;2023-04-05T17:35:02;99569.69;;;9.28;63.41
69035;BME280;56091;55.756;37.412;2023-04-05T17:40:04;99575.88;;;9.29;63.39
69035;BME280;56091;55.756;37.412;2023-04-05T17:45:06;99581.09;;;9.18;63.22
69035;BME280;56091;55.756;37.412;2023-04-05T17:50:07;99565.28;;;9.10;63.61
69035;BME280;56091;55.756;37.412;2023-04-05T17:55:08;99583.53;;;9.20;63.15
69035;BME280;56091;55.756;37.412;2023-04-05T18:00:09;99593.13;;;9.16;62.72
69035;BME280;56091;55.756;37.412;2023-04-05T18:05:10;99594.44;;;9.13;62.80
69035;BME280;56091;55.756;37.412;2023-04-05T18:10:11;99565.94;;;8.89;62.43
69035;BME280;56091;55.756;37.412;2023-04-05T18:15:13;99606.16;;;9.07;62.52
69035;BME280;56091;55.756;37.412;2023-04-05T18:20:14;99606.25;;;9.01;62.76
69035;BME280;56091;55.756;37.412;2023-04-05T18:25:15;99597.41;;;8.88;62.81
69035;BME280;56091;55.756;37.412;2023-04-05T18:30:17;99608.84;;;8.84;62.92
69035;BME280;56091;55.756;37.412;2023-04-05T18:35:18;99613.06;;;8.79;63.42
69035;BME280;56091;55.756;37.412;2023-04-05T18:40:19;99603.00;;;8.63;63.57
69035;BME280;56091;55.756;37.412;2023-04-05T18:45:21;99607.81;;;8.73;64.11
69035;BME280;56091;55.756;37.412;2023-04-05T18:50:22;99613.31;;;8.66;63.75
69035;BME280;56091;55.756;37.412;2023-04-05T18:55:23;99615.66;;;8.63;62.85
69035;BME280;56091;55.756;37.412;2023-04-05T19:00:24;99630.03;;;8.56;62.41
69035;BME280;56091;55.756;37.412;2023-04-05T19:05:25;99619.16;;;8.51;61.82
69035;BME280;56091;55.756;37.412;2023-04-05T19:10:25;99629.78;;;8.46;61.55
69035;BME280;56091;55.756;37.412;2023-04-05T19:15:26;99634.44;;;8.39;61.69
69035;BME280;56091;55.756;37.412;2023-04-05T19:20:27;99623.31;;;8.35;61.07
69035;BME280;56091;55.756;37.412;2023-04-05T19:25:28;99629.38;;;8.31;60.97
69035;BME280;56091;55.756;37.412;2023-04-05T19:30:30;99634.06;;;8.24;60.21
69035;BME280;56091;55.756;37.412;2023-04-05T19:35:31;99636.81;;;8.17;60.53
69035;BME280;56091;55.756;37.412;2023-04-05T19:40:32;99633.91;;;8.07;60.95
69035;BME280;56091;55.756;37.412;2023-04-05T19:45:32;99649.28;;;7.99;61.02
69035;BME280;56091;55.756;37.412;2023-04-05T19:50:47;99647.63;;;7.98;61.12
69035;BME280;56091;55.756;37.412;2023-04-05T19:55:48;99625.63;;;7.78;61.72
69035;BME280;56091;55.756;37.412;2023-04-05T20:00:49;99577.59;;;7.39;61.69
69035;BME280;56091;55.756;37.412;2023-04-05T20:06:11;99649.56;;;7.79;62.42
69035;BME280;56091;55.756;37.412;2023-04-05T20:11:22;99653.84;;;7.69;62.95
69035;BME280;56091;55.756;37.412;2023-04-05T20:16:30;99630.25;;;7.40;63.32
69035;BME280;56091;55.756;37.412;2023-04-05T20:21:32;99660.13;;;7.44;63.97
69035;BME280;56091;55.756;37.412;2023-04-05T20:26:33;99654.25;;;7.35;64.46
69035;BME280;56091;55.756;37.412;2023-04-05T20:31:36;99648.22;;;7.21;65.03
69035;BME280;56091;55.756;37.412;2023-04-05T20:36:48;99668.94;;;7.14;65.44
69035;BME280;56091;55.756;37.412;2023-04-05T20:41:50;99660.81;;;7.02;66.18
69035;BME280;56091;55.756;37.412;2023-04-05T20:46:54;99663.84;;;6.88;66.77
69035;BME280;56091;55.756;37.412;2023-04-05T20:51:59;99659.19;;;6.76;67.44
69035;BME280;56091;55.756;37.412;2023-04-05T20:57:04;99657.53;;;6.57;68.04
69035;BME280;56091;55.756;37.412;2023-04-05T21:02:05;99664.97;;;6.55;68.51
69035;BME280;56091;55.756;37.412;2023-04-05T21:07:06;99681.19;;;6.60;68.69
69035;BME280;56091;55.756;37.412;2023-04-05T21:12:07;99663.38;;;6.47;68.74
69035;BME280;56091;55.756;37.412;2023-04-05T21:17:07;99680.66;;;6.51;68.89
69035;BME280;56091;55.756;37.412;2023-04-05T21:22:08;99680.28;;;6.48;69.10
69035;BME280;56091;55.756;37.412;2023-04-05T21:27:12;99678.69;;;6.40;69.05
69035;BME280;56091;55.756;37.412;2023-04-05T21:32:13;99682.88;;;6.29;69.62
69035;BME280;56091;55.756;37.412;2023-04-05T21:37:14;99678.25;;;6.11;69.74
69035;BME280;56091;55.756;37.412;2023-04-05T21:42:15;99682.41;;;6.07;70.05
69035;BME280;56091;55.756;37.412;2023-04-05T21:47:15;99678.75;;;6.01;70.14
69035;BME280;56091;55.756;37.412;2023-04-05T21:52:17;99687.97;;;6.05;69.95
69035;BME280;56091;55.756;37.412;2023-04-05T21:57:18;99681.78;;;6.05;70.16
69035;BME280;56091;55.756;37.412;2023-04-05T22:02:19;99688.59;;;6.01;70.09
69035;BME280;56091;55.756;37.412;2023-04-05T22:07:22;99695.00;;;5.93;70.06
69035;BME280;56091;55.756;37.412;2023-04-05T22:12:23;99683.56;;;5.79;69.99
69035;BME280;56091;55.756;37.412;2023-04-05T22:17:24;99681.50;;;5.75;69.93
69035;BME280;56091;55.756;37.412;2023-04-05T22:22:25;99696.72;;;5.81;69.89
69035;BME280;56091;55.756;37.412;2023-04-05T22:27:26;99693.00;;;5.82;69.97
69035;BME280;56091;55.756;37.412;2023-04-05T22:32:28;99698.56;;;5.80;69.76
69035;BME280;56091;55.756;37.412;2023-04-05T22:37:32;99693.25;;;5.74;69.57
69035;BME280;56091;55.756;37.412;2023-04-05T22:42:36;99699.63;;;5.73;69.50
69035;BME280;56091;55.756;37.412;2023-04-05T22:47:38;99704.97;;;5.73;69.44
69035;BME280;56091;55.756;37.412;2023-04-05T22:52:39;99692.03;;;5.70;69.17
69035;BME280;56091;55.756;37.412;2023-04-05T22:57:40;99700.50;;;5.66;69.31
69035;BME280;56091;55.756;37.412;2023-04-05T23:02:42;99698.84;;;5.65;69.37
69035;BME280;56091;55.756;37.412;2023-04-05T23:07:45;99685.50;;;5.59;69.20
69035;BME280;56091;55.756;37.412;2023-04-05T23:12:47;99695.19;;;5.60;68.91
69035;BME280;56091;55.756;37.412;2023-04-05T23:17:47;99670.50;;;5.51;69.04
69035;BME280;56091;55.756;37.412;2023-04-05T23:22:49;99698.66;;;5.60;68.80
69035;BME280;56091;55.756;37.412;2023-04-05T23:27:50;99705.47;;;5.56;68.97
69035;BME280;56091;55.756;37.412;2023-04-05T23:32:53;99693.94;;;5.56;68.94
69035;BME280;56091;55.756;37.412;2023-04-05T23:37:54;99688.56;;;5.56;68.88
69035;BME280;56091;55.756;37.412;2023-04-05T23:42:54;99684.53;;;5.46;69.08
69035;BME280;56091;55.756;37.412;2023-04-05T23:47:55;99698.09;;;5.45;69.37
69035;BME280;56091;55.756;37.412;2023-04-05T23:52:57;99692.56;;;5.40;69.62
69035;BME280;56091;55.756;37.412;2023-04-05T23:58:00;99697.31;;;5.31;70.12
